ESCF/LPI METAR and TAF weather

Enter ICAO airport designator
Station Type Date Time Source
ESCF METAR 2022/01/18 06:20 UTC NOAA

ESCF 180620Z 24006KT CAVOK M03/M05 Q1027


Station Type Date Time Source
ESCF Decoded METAR 2022/01/18 06:20 UTC NOAA

Linkoping / Malmen, Sweden (ESCF) 58-24N 015-31E 117M
Jan 18, 2022 - 01:20 AM EST / 2022.01.18 0620 UTC
Wind: from the WSW (240 degrees) at 7 MPH (6 KT):0
Visibility: greater than 7 mile(s):0
Temperature: 26 F (-3 C)
Windchill: 17 F (-8 C):1
Dew Point: 23 F (-5 C)
Relative Humidity: 86%
Pressure (altimeter): 30.33 in. Hg (1027 hPa)
ob: ESCF 180620Z 24006KT CAVOK M03/M05 Q1027
cycle: 6

Station Type Date Time Source
ESCF TAF UTC NOAA

Error!

Example: see airport list